createdAt,value
2022-10-01T00:01:31.759Z,23.40
2022-10-01T00:04:00.160Z,23.50
2022-10-01T00:06:28.386Z,23.60
2022-10-01T00:08:56.500Z,23.70
2022-10-01T00:11:26.578Z,23.70
2022-10-01T00:13:55.379Z,23.80
2022-10-01T00:16:26.609Z,23.70
2022-10-01T00:18:55.450Z,23.50
2022-10-01T00:21:25.125Z,23.40
2022-10-01T00:23:57.350Z,23.30
2022-10-01T00:26:28.058Z,23.30
2022-10-01T00:29:01.142Z,23.30
2022-10-01T00:31:30.451Z,23.40
2022-10-01T00:34:03.670Z,23.40
2022-10-01T00:36:33.366Z,23.50
2022-10-01T00:39:01.698Z,23.60
2022-10-01T00:41:32.440Z,23.70
2022-10-01T00:44:04.729Z,23.70
2022-10-01T00:46:54.470Z,23.60
2022-10-01T00:49:28.148Z,23.40
2022-10-01T00:51:59.916Z,23.50
2022-10-01T00:54:32.285Z,23.50
2022-10-01T00:57:03.169Z,23.60
2022-10-01T00:59:32.382Z,23.60
2022-10-01T01:02:01.032Z,23.70
2022-10-01T01:04:29.474Z,23.80
2022-10-01T01:07:00.998Z,23.70
2022-10-01T01:09:33.508Z,23.50
2022-10-01T01:12:26.927Z,23.40
2022-10-01T01:15:01.011Z,23.30
2022-10-01T01:17:40.907Z,23.30
2022-10-01T01:20:20.651Z,23.30
2022-10-01T01:23:11.991Z,23.40
2022-10-01T01:25:59.938Z,23.50
2022-10-01T01:28:50.979Z,23.60
2022-10-01T01:31:25.465Z,23.70
2022-10-01T01:33:56.268Z,23.80
2022-10-01T01:36:29.315Z,23.80
2022-10-01T01:39:03.094Z,23.60
2022-10-01T01:41:35.684Z,23.40
2022-10-01T01:44:08.825Z,23.40
2022-10-01T01:46:41.717Z,23.50
2022-10-01T01:49:10.479Z,23.60
2022-10-01T01:51:49.913Z,23.60
2022-10-01T01:54:20.228Z,23.70
2022-10-01T01:56:50.287Z,23.80
2022-10-01T01:59:19.350Z,23.70
2022-10-01T02:01:47.692Z,23.50
2022-10-01T02:07:54.375Z,23.30
2022-10-01T02:10:46.677Z,23.30
2022-10-01T02:13:56.254Z,23.30
2022-10-01T02:16:33.177Z,23.40
2022-10-01T02:19:25.655Z,23.50
2022-10-01T02:22:08.489Z,23.60
2022-10-01T02:24:42.882Z,23.70
2022-10-01T02:27:33.870Z,23.80
2022-10-01T02:30:06.762Z,23.50
2022-10-01T02:32:39.971Z,23.40
2022-10-01T02:35:11.798Z,23.40
2022-10-01T02:37:43.381Z,23.50
2022-10-01T02:40:16.183Z,23.50
2022-10-01T02:42:52.003Z,23.60
2022-10-01T02:45:23.239Z,23.60
2022-10-01T02:47:56.638Z,23.80
2022-10-01T02:50:32.043Z,23.70
2022-10-01T02:53:05.881Z,23.60
2022-10-01T02:55:38.447Z,23.40
2022-10-01T02:58:08.075Z,23.30
2022-10-01T03:00:36.471Z,23.20
2022-10-01T03:03:04.669Z,23.20
2022-10-01T03:05:33.035Z,23.30
2022-10-01T03:08:01.407Z,23.30
2022-10-01T03:10:29.580Z,23.40
2022-10-01T03:12:57.801Z,23.50
2022-10-01T03:15:25.977Z,23.60
2022-10-01T03:17:54.324Z,23.70
2022-10-01T03:20:22.957Z,23.80
2022-10-01T03:22:51.614Z,23.60
2022-10-01T03:25:19.947Z,23.40
2022-10-01T03:27:52.540Z,23.30
2022-10-01T03:30:20.768Z,23.40
2022-10-01T03:32:48.811Z,23.50
2022-10-01T03:35:17.115Z,23.60
2022-10-01T03:37:45.286Z,23.60
2022-10-01T03:40:13.550Z,23.70
2022-10-01T03:42:41.676Z,23.80
2022-10-01T03:45:10.319Z,23.60
2022-10-01T03:47:38.366Z,23.40
2022-10-01T03:50:07.180Z,23.30
2022-10-01T03:52:35.081Z,23.30
2022-10-01T03:55:03.278Z,23.20
2022-10-01T03:57:31.369Z,23.30
2022-10-01T03:59:59.537Z,23.30
2022-10-01T04:02:27.931Z,23.40
2022-10-01T04:04:56.352Z,23.50
2022-10-01T04:07:24.599Z,23.50
2022-10-01T04:09:52.609Z,23.60
2022-10-01T04:12:20.832Z,23.70
2022-10-01T04:14:48.973Z,23.70
2022-10-01T04:17:17.166Z,23.50
2022-10-01T04:19:45.302Z,23.30
2022-10-01T04:22:13.475Z,23.40
2022-10-01T04:24:41.707Z,23.40
2022-10-01T04:27:10.218Z,23.50
2022-10-01T04:29:40.255Z,23.60
2022-10-01T04:32:08.640Z,23.60
2022-10-01T04:34:36.903Z,23.70
2022-10-01T04:37:05.066Z,23.70
2022-10-01T04:39:33.301Z,23.60
2022-10-01T04:42:01.480Z,23.40
2022-10-01T04:44:29.843Z,23.30
2022-10-01T04:46:58.264Z,23.20
2022-10-01T04:49:26.433Z,23.10
2022-10-01T04:51:54.550Z,23.20
2022-10-01T04:54:22.802Z,23.30
2022-10-01T04:56:51.003Z,23.40
2022-10-01T04:59:19.344Z,23.40
2022-10-01T05:01:47.664Z,23.50
2022-10-01T05:04:24.852Z,23.60
2022-10-01T05:06:52.970Z,23.70
2022-10-01T05:09:21.191Z,23.60
2022-10-01T05:11:49.310Z,23.40
2022-10-01T05:14:17.281Z,23.30
2022-10-01T05:16:45.531Z,23.30
2022-10-01T05:19:14.168Z,23.40
2022-10-01T05:21:42.357Z,23.40
2022-10-01T05:24:10.574Z,23.50
2022-10-01T05:26:38.847Z,23.60
2022-10-01T05:29:07.057Z,23.60
2022-10-01T05:31:35.309Z,23.60
2022-10-01T05:34:03.527Z,23.40
2022-10-01T05:36:31.652Z,23.30
2022-10-01T05:39:05.239Z,23.20
2022-10-01T05:41:33.689Z,23.10
2022-10-01T05:44:02.151Z,23.10
2022-10-01T05:46:30.537Z,23.10
2022-10-01T05:48:58.776Z,23.20
2022-10-01T05:51:27.945Z,23.30
2022-10-01T05:53:56.538Z,23.40
2022-10-01T05:56:24.366Z,23.50
2022-10-01T05:58:52.625Z,23.60
2022-10-01T06:01:20.815Z,23.60
2022-10-01T06:03:53.330Z,23.60
2022-10-01T06:06:23.283Z,23.40
2022-10-01T06:08:51.671Z,23.20
2022-10-01T06:11:20.815Z,23.30
2022-10-01T06:13:49.337Z,23.30
2022-10-01T06:16:17.684Z,23.40
2022-10-01T06:18:47.458Z,23.40
2022-10-01T06:21:15.662Z,23.50
2022-10-01T06:23:43.677Z,23.60
2022-10-01T06:26:11.949Z,23.70
2022-10-01T06:28:40.088Z,23.60
2022-10-01T06:31:08.241Z,23.40
2022-10-01T06:33:36.593Z,23.20
2022-10-01T06:36:05.336Z,23.10
2022-10-01T06:38:33.630Z,23.00
2022-10-01T06:41:03.159Z,23.00
2022-10-01T06:43:32.662Z,23.10
2022-10-01T06:46:05.555Z,23.20
2022-10-01T06:48:34.610Z,23.30
2022-10-01T06:51:03.299Z,23.40
2022-10-01T06:53:31.390Z,23.50
2022-10-01T06:56:08.025Z,23.60
2022-10-01T06:58:36.115Z,23.60
2022-10-01T07:01:04.726Z,23.60
2022-10-01T07:03:32.533Z,23.30
2022-10-01T07:06:05.845Z,23.20
2022-10-01T07:08:34.015Z,23.10
2022-10-01T07:11:03.191Z,23.00
2022-10-01T07:13:32.085Z,23.10
2022-10-01T07:16:00.370Z,23.10
2022-10-01T07:18:28.581Z,23.30
2022-10-01T07:20:59.589Z,23.30
2022-10-01T07:23:27.788Z,23.40
2022-10-01T07:25:56.034Z,23.50
2022-10-01T07:28:24.348Z,23.60
2022-10-01T07:31:07.126Z,23.60
2022-10-01T07:33:35.413Z,23.40
2022-10-01T07:36:06.324Z,23.20
2022-10-01T07:38:34.978Z,23.00
2022-10-01T07:41:03.558Z,23.00
2022-10-01T07:43:32.429Z,23.00
2022-10-01T07:46:00.717Z,23.10
2022-10-01T07:48:29.156Z,23.20
2022-10-01T07:50:57.427Z,23.20
2022-10-01T07:53:25.874Z,23.40
2022-10-01T07:55:54.151Z,23.40
2022-10-01T07:58:22.305Z,23.50
2022-10-01T08:00:50.739Z,23.60
2022-10-01T08:03:18.972Z,23.60
2022-10-01T08:05:47.227Z,23.30
2022-10-01T08:08:15.627Z,23.10
2022-10-01T08:10:43.683Z,23.00
2022-10-01T08:13:16.860Z,23.00
2022-10-01T08:15:47.571Z,23.00
2022-10-01T08:18:15.822Z,23.10
2022-10-01T08:20:44.002Z,23.20
2022-10-01T08:23:13.964Z,23.30
2022-10-01T08:25:43.739Z,23.30
2022-10-01T08:28:12.942Z,23.40
2022-10-01T08:30:43.235Z,23.50
2022-10-01T08:33:13.045Z,23.60
2022-10-01T08:35:41.953Z,23.50
2022-10-01T08:38:11.215Z,23.30
2022-10-01T08:40:51.058Z,23.10
2022-10-01T08:43:39.596Z,23.00
2022-10-01T08:46:13.285Z,23.00
2022-10-01T08:49:07.152Z,23.00
2022-10-01T08:51:40.698Z,23.10
2022-10-01T08:54:27.262Z,23.20
2022-10-01T08:56:58.584Z,23.20
2022-10-01T09:00:04.938Z,23.30
2022-10-01T09:02:35.938Z,23.40
2022-10-01T09:05:10.555Z,23.50
2022-10-01T09:08:20.304Z,23.60
2022-10-01T09:10:48.445Z,23.40
2022-10-01T09:13:34.366Z,23.20
2022-10-01T09:16:26.081Z,23.00
2022-10-01T09:19:00.521Z,23.00
2022-10-01T09:21:51.811Z,23.00
2022-10-01T09:24:45.952Z,23.10
2022-10-01T09:27:19.217Z,23.20
2022-10-01T09:29:53.115Z,23.20
2022-10-01T09:32:27.217Z,23.30
2022-10-01T09:35:00.904Z,23.50
2022-10-01T09:37:56.816Z,23.50
2022-10-01T09:40:49.524Z,23.60
2022-10-01T09:43:17.939Z,23.30
2022-10-01T09:45:46.274Z,23.10
2022-10-01T09:48:31.079Z,23.10
2022-10-01T09:51:08.245Z,23.00
2022-10-01T09:53:44.486Z,23.00
2022-10-01T09:56:20.517Z,23.00
2022-10-01T09:58:54.268Z,23.10
2022-10-01T10:01:40.528Z,23.20
2022-10-01T10:04:10.459Z,23.30
2022-10-01T10:06:39.518Z,23.40
2022-10-01T10:09:17.669Z,23.50
2022-10-01T10:11:46.572Z,23.50
2022-10-01T10:14:31.182Z,23.60
2022-10-01T10:17:06.178Z,23.40
2022-10-01T10:19:35.027Z,23.20
2022-10-01T10:22:13.674Z,23.10
2022-10-01T10:24:42.043Z,23.00
2022-10-01T10:27:23.862Z,23.00
2022-10-01T10:30:03.557Z,23.00
2022-10-01T10:32:32.156Z,23.10
2022-10-01T10:35:03.717Z,23.20
2022-10-01T10:37:36.761Z,23.30
2022-10-01T10:40:08.049Z,23.30
2022-10-01T10:42:37.280Z,23.40
2022-10-01T10:45:17.621Z,23.50
2022-10-01T10:47:49.220Z,23.50
2022-10-01T10:50:29.072Z,23.60
2022-10-01T10:52:57.461Z,23.30
2022-10-01T10:55:31.575Z,23.20
2022-10-01T10:58:17.852Z,23.20
2022-10-01T11:00:51.529Z,23.30
2022-10-01T11:03:24.309Z,23.30
2022-10-01T11:05:54.335Z,23.40
2022-10-01T11:08:25.624Z,23.50
2022-10-01T11:11:05.743Z,23.60
2022-10-01T11:13:52.533Z,23.60
2022-10-01T11:16:30.321Z,23.40
2022-10-01T11:19:19.834Z,23.30
2022-10-01T11:22:06.503Z,23.20
2022-10-01T11:25:12.381Z,23.10
2022-10-01T11:28:07.929Z,23.10
2022-10-01T11:30:54.175Z,23.10
2022-10-01T11:33:28.470Z,23.20
2022-10-01T11:36:22.533Z,23.30
2022-10-01T11:38:57.425Z,23.40
2022-10-01T11:41:46.678Z,23.50
2022-10-01T11:44:38.230Z,23.50
2022-10-01T11:47:20.791Z,23.60
2022-10-01T11:49:54.964Z,23.50
2022-10-01T11:52:33.066Z,23.30
2022-10-01T11:55:27.312Z,23.30
2022-10-01T11:58:08.270Z,23.40
2022-10-01T12:00:39.876Z,23.50
2022-10-01T12:03:17.753Z,23.60
2022-10-01T12:05:47.031Z,23.70
2022-10-01T12:08:47.939Z,23.70
2022-10-01T12:11:22.607Z,23.60
2022-10-01T12:14:06.663Z,23.50
2022-10-01T12:16:45.118Z,23.30
2022-10-01T12:19:33.878Z,23.20
2022-10-01T12:22:26.440Z,23.20
2022-10-01T12:24:54.618Z,23.20
2022-10-01T12:27:57.368Z,23.30
2022-10-01T12:30:30.967Z,23.30
2022-10-01T12:33:17.813Z,23.40
2022-10-01T12:36:17.339Z,23.50
2022-10-01T12:38:48.822Z,23.60
2022-10-01T12:41:49.557Z,23.40
2022-10-01T12:44:30.565Z,23.30
2022-10-01T12:47:31.242Z,23.40
2022-10-01T12:50:17.586Z,23.50
2022-10-01T12:53:04.009Z,23.60
2022-10-01T12:55:57.116Z,23.70
2022-10-01T12:58:25.244Z,23.60
2022-10-01T13:01:38.421Z,23.50
2022-10-01T13:04:12.697Z,23.30
2022-10-01T13:07:14.829Z,23.30
2022-10-01T13:10:41.598Z,23.30
2022-10-01T13:13:27.942Z,23.30
2022-10-01T13:16:15.176Z,23.50
2022-10-01T13:19:05.450Z,23.60
2022-10-01T13:21:41.139Z,23.60
2022-10-01T13:24:25.023Z,23.50
2022-10-01T13:27:14.343Z,23.40
2022-10-01T13:29:57.399Z,23.40
2022-10-01T13:32:28.544Z,23.50
2022-10-01T13:34:58.538Z,23.60
2022-10-01T13:37:39.924Z,23.70
2022-10-01T13:40:40.644Z,23.60
2022-10-01T13:43:18.547Z,23.50
2022-10-01T13:45:49.516Z,23.40
2022-10-01T13:48:28.242Z,23.30
2022-10-01T13:51:04.455Z,23.30
2022-10-01T13:54:02.688Z,23.40
2022-10-01T13:56:34.446Z,23.40
2022-10-01T13:59:04.350Z,23.50
2022-10-01T14:01:43.013Z,23.60
2022-10-01T14:04:20.079Z,23.60
2022-10-01T14:07:11.899Z,23.70
2022-10-01T14:09:49.718Z,23.60
2022-10-01T14:12:28.367Z,23.50
2022-10-01T14:14:58.911Z,23.50
2022-10-01T14:17:30.845Z,23.60
2022-10-01T14:20:01.454Z,23.60
2022-10-01T14:22:47.690Z,23.70
2022-10-01T14:25:43.814Z,23.80
2022-10-01T14:28:33.448Z,23.60
2022-10-01T14:31:26.113Z,23.50
2022-10-01T14:34:12.660Z,23.50
2022-10-01T14:36:50.417Z,23.40
2022-10-01T14:39:28.268Z,23.40
2022-10-01T14:41:58.484Z,23.50
2022-10-01T14:44:38.884Z,23.50
2022-10-01T14:47:19.469Z,23.60
2022-10-01T14:49:48.733Z,23.60
2022-10-01T14:52:23.162Z,23.50
2022-10-01T14:55:15.370Z,23.40
2022-10-01T14:57:46.811Z,23.50
2022-10-01T15:00:18.396Z,23.60
2022-10-01T15:03:04.353Z,23.70
2022-10-01T15:05:35.698Z,23.80
2022-10-01T15:08:14.695Z,23.80
2022-10-01T15:11:02.500Z,23.60
2022-10-01T15:13:35.746Z,23.50
2022-10-01T15:16:04.393Z,23.50
2022-10-01T15:18:33.173Z,23.40
2022-10-01T15:21:07.300Z,23.50
2022-10-01T15:23:39.878Z,23.50
2022-10-01T15:26:11.856Z,23.60
2022-10-01T15:28:40.195Z,23.70
2022-10-01T15:31:08.837Z,23.60
2022-10-01T15:33:39.235Z,23.60
2022-10-01T15:36:13.069Z,23.60
2022-10-01T15:38:44.295Z,23.70
2022-10-01T15:41:31.581Z,23.80
2022-10-01T15:44:04.230Z,23.80
2022-10-01T15:46:34.159Z,23.70
2022-10-01T15:49:17.319Z,23.60
2022-10-01T15:51:59.743Z,23.50
2022-10-01T15:54:28.095Z,23.50
2022-10-01T15:56:56.152Z,23.60
2022-10-01T15:59:24.637Z,23.70
2022-10-01T16:01:52.987Z,23.70
2022-10-01T16:04:22.320Z,23.60
2022-10-01T16:06:51.930Z,23.60
2022-10-01T16:09:24.962Z,23.70
2022-10-01T16:11:58.754Z,23.70
2022-10-01T16:14:37.721Z,23.60
2022-10-01T16:17:17.822Z,23.60
2022-10-01T16:19:49.211Z,23.60
2022-10-01T16:22:28.155Z,23.70
2022-10-01T16:25:03.751Z,23.70
2022-10-01T16:27:44.353Z,23.60
2022-10-01T16:30:27.400Z,23.60
2022-10-01T16:32:58.087Z,23.70
2022-10-01T16:35:28.435Z,23.60
2022-10-01T16:37:57.912Z,23.60
2022-10-01T16:40:31.946Z,23.50
2022-10-01T16:43:01.199Z,23.50
2022-10-01T16:45:38.454Z,23.70
2022-10-01T16:48:16.695Z,23.70
2022-10-01T16:50:45.407Z,23.60
2022-10-01T16:53:18.621Z,23.60
2022-10-01T16:55:47.868Z,23.60
2022-10-01T16:58:16.008Z,23.60
2022-10-01T17:00:44.517Z,23.60
2022-10-01T17:03:19.569Z,23.50
2022-10-01T17:05:48.299Z,23.50
2022-10-01T17:08:16.180Z,23.60
2022-10-01T17:10:47.044Z,23.70
2022-10-01T17:13:16.077Z,23.60
2022-10-01T17:15:44.496Z,23.50
2022-10-01T17:18:12.624Z,23.60
2022-10-01T17:20:40.946Z,23.70
2022-10-01T17:23:10.931Z,23.70
2022-10-01T17:25:40.201Z,23.70
2022-10-01T17:28:11.943Z,23.60
2022-10-01T17:30:41.608Z,23.50
2022-10-01T17:33:12.135Z,23.50
2022-10-01T17:35:45.566Z,23.60
2022-10-01T17:38:14.116Z,23.70
2022-10-01T17:40:43.085Z,23.80
2022-10-01T17:43:16.051Z,23.70
2022-10-01T17:45:45.430Z,23.60
2022-10-01T17:48:13.551Z,23.60
2022-10-01T17:50:41.873Z,23.80
2022-10-01T17:53:11.101Z,23.80
2022-10-01T17:55:43.142Z,23.70
2022-10-01T17:58:11.280Z,23.60
2022-10-01T18:00:41.667Z,23.50
2022-10-01T18:03:09.994Z,23.50
2022-10-01T18:05:38.098Z,23.60
2022-10-01T18:08:06.368Z,23.70
2022-10-01T18:10:34.424Z,23.80
2022-10-01T18:13:02.683Z,23.70
2022-10-01T18:15:30.886Z,23.60
2022-10-01T18:19:12.740Z,23.60
2022-10-01T18:20:47.203Z,23.70
2022-10-01T18:23:15.324Z,23.80
2022-10-01T18:25:43.456Z,23.80
2022-10-01T18:28:11.600Z,23.70
2022-10-01T18:30:39.773Z,23.60
2022-10-01T18:33:12.322Z,23.50
2022-10-01T18:35:42.540Z,23.50
2022-10-01T18:38:25.532Z,23.60
2022-10-01T18:41:06.860Z,23.70
2022-10-01T18:43:39.225Z,23.80
2022-10-01T18:46:19.042Z,23.80
2022-10-01T18:49:17.752Z,23.70
2022-10-01T18:51:58.283Z,23.60
2022-10-01T18:54:52.390Z,23.80
2022-10-01T18:57:26.802Z,23.80
2022-10-01T19:00:02.066Z,23.80
2022-10-01T19:02:52.020Z,23.70
2022-10-01T19:05:35.402Z,23.60
2022-10-01T19:08:38.946Z,23.50
2022-10-01T19:11:30.855Z,23.60
2022-10-01T19:14:31.203Z,23.70
2022-10-01T19:17:05.393Z,23.80
2022-10-01T19:19:59.807Z,23.80
2022-10-01T19:22:33.989Z,23.70
2022-10-01T19:25:37.494Z,23.60
2022-10-01T19:28:23.863Z,23.70
2022-10-01T19:31:24.929Z,23.80
2022-10-01T19:34:02.703Z,23.80
2022-10-01T19:36:39.018Z,23.60
2022-10-01T19:40:27.164Z,23.50
2022-10-01T19:43:06.528Z,23.60
2022-10-01T19:45:47.402Z,23.60
2022-10-01T19:48:35.837Z,23.80
2022-10-01T19:51:09.882Z,23.80
2022-10-01T19:53:42.462Z,23.80
2022-10-01T19:56:17.695Z,23.60
2022-10-01T19:58:46.533Z,23.50
2022-10-01T20:01:17.214Z,23.50
2022-10-01T20:04:00.702Z,23.50
2022-10-01T20:06:37.205Z,23.70
2022-10-01T20:09:50.274Z,23.80
2022-10-01T20:12:33.805Z,23.80
2022-10-01T20:15:34.251Z,23.80
2022-10-01T20:18:34.007Z,23.70
2022-10-01T20:21:16.955Z,23.70
2022-10-01T20:23:57.510Z,23.70
2022-10-01T20:26:40.418Z,23.80
2022-10-01T20:29:28.140Z,23.70
2022-10-01T20:32:20.774Z,23.60
2022-10-01T20:35:08.454Z,23.50
2022-10-01T20:37:53.695Z,23.50
2022-10-01T20:40:47.532Z,23.50
2022-10-01T20:43:37.393Z,23.60
2022-10-01T20:46:28.736Z,23.70
2022-10-01T20:49:05.772Z,23.80
2022-10-01T20:51:38.959Z,23.70
2022-10-01T20:54:13.125Z,23.60
2022-10-01T20:57:16.233Z,23.60
2022-10-01T20:59:49.749Z,23.70
2022-10-01T21:02:47.304Z,23.80
2022-10-01T21:05:43.266Z,23.80
2022-10-01T21:08:29.818Z,23.60
2022-10-01T21:11:00.819Z,23.50
2022-10-01T21:13:31.805Z,23.50
2022-10-01T21:16:19.648Z,23.50
2022-10-01T21:19:01.562Z,23.60
2022-10-01T21:21:40.722Z,23.70
2022-10-01T21:24:30.226Z,23.80
2022-10-01T21:27:16.658Z,23.80
2022-10-01T21:30:02.673Z,23.80
2022-10-01T21:32:52.760Z,23.70
2022-10-01T21:35:36.193Z,23.60
2022-10-01T21:38:12.301Z,23.70
2022-10-01T21:41:10.573Z,23.80
2022-10-01T21:44:11.304Z,23.90
2022-10-01T21:47:03.770Z,23.70
2022-10-01T21:49:57.924Z,23.60
2022-10-01T21:53:03.226Z,23.50
2022-10-01T21:55:47.339Z,23.50
2022-10-01T21:58:28.305Z,23.60
2022-10-01T22:01:37.824Z,23.70
2022-10-01T22:04:27.151Z,23.80
2022-10-01T22:07:05.993Z,23.80
2022-10-01T22:10:03.994Z,23.60
2022-10-01T22:12:36.003Z,23.50
2022-10-01T22:15:18.849Z,23.60
2022-10-01T22:17:48.996Z,23.70
2022-10-01T22:20:19.507Z,23.80
2022-10-01T22:22:49.237Z,23.80
2022-10-01T22:25:17.551Z,23.70
2022-10-01T22:27:57.899Z,23.60
2022-10-01T22:30:28.363Z,23.50
2022-10-01T22:33:23.631Z,23.50
2022-10-01T22:36:14.041Z,23.50
2022-10-01T22:38:53.451Z,23.50
2022-10-01T22:41:36.488Z,23.60
2022-10-01T22:44:30.171Z,23.70
2022-10-01T22:47:29.013Z,23.80
2022-10-01T22:50:15.571Z,23.70
2022-10-01T22:53:07.656Z,23.50
2022-10-01T22:55:51.072Z,23.60
2022-10-01T22:58:32.492Z,23.70
2022-10-01T23:01:28.131Z,23.80
2022-10-01T23:04:30.294Z,23.80
2022-10-01T23:07:20.126Z,23.80
2022-10-01T23:10:27.373Z,23.60
2022-10-01T23:13:11.634Z,23.50
2022-10-01T23:15:47.904Z,23.50
2022-10-01T23:18:40.494Z,23.50
2022-10-01T23:21:34.536Z,23.50
2022-10-01T23:24:30.525Z,23.60
2022-10-01T23:27:04.908Z,23.70
2022-10-01T23:30:22.449Z,23.80
2022-10-01T23:33:17.979Z,23.80
2022-10-01T23:35:57.599Z,23.60
2022-10-01T23:38:32.025Z,23.60
2022-10-01T23:41:09.488Z,23.60
2022-10-01T23:43:45.577Z,23.70
2022-10-01T23:46:24.396Z,23.80
2022-10-01T23:49:10.659Z,23.80
2022-10-01T23:51:46.342Z,23.70
2022-10-01T23:54:52.701Z,23.60
2022-10-01T23:57:26.745Z,23.50
